sensor_id;sensor_type;location;lat;lon;timestamp;pressure;altitude;pressure_sealevel;temperature
8227;BMP180;4154;48.810;9.012;2023-02-24T00:01:47;96623.00;;;8.70
8227;BMP180;4154;48.810;9.012;2023-02-24T00:04:18;96627.00;;;8.80
8227;BMP180;4154;48.810;9.012;2023-02-24T00:06:45;96627.00;;;8.80
8227;BMP180;4154;48.810;9.012;2023-02-24T00:09:16;96627.00;;;8.90
8227;BMP180;4154;48.810;9.012;2023-02-24T00:11:46;96627.00;;;8.90
8227;BMP180;4154;48.810;9.012;2023-02-24T00:14:15;96619.00;;;8.90
8227;BMP180;4154;48.810;9.012;2023-02-24T00:16:42;96621.00;;;8.90
8227;BMP180;4154;48.810;9.012;2023-02-24T00:19:13;96619.00;;;8.90
8227;BMP180;4154;48.810;9.012;2023-02-24T00:21:39;96614.00;;;8.90
8227;BMP180;4154;48.810;9.012;2023-02-24T00:24:06;96618.00;;;8.80
8227;BMP180;4154;48.810;9.012;2023-02-24T00:26:32;96614.00;;;8.90
8227;BMP180;4154;48.810;9.012;2023-02-24T00:28:58;96605.00;;;8.90
8227;BMP180;4154;48.810;9.012;2023-02-24T00:31:26;96612.00;;;8.80
8227;BMP180;4154;48.810;9.012;2023-02-24T00:33:56;96613.00;;;8.90
8227;BMP180;4154;48.810;9.012;2023-02-24T00:36:23;96604.00;;;8.80
8227;BMP180;4154;48.810;9.012;2023-02-24T00:38:53;96602.00;;;8.90
8227;BMP180;4154;48.810;9.012;2023-02-24T00:41:31;96602.00;;;8.90
8227;BMP180;4154;48.810;9.012;2023-02-24T00:44:01;96593.00;;;8.90
8227;BMP180;4154;48.810;9.012;2023-02-24T00:46:35;96583.00;;;8.90
8227;BMP180;4154;48.810;9.012;2023-02-24T00:49:04;96580.00;;;8.80
8227;BMP180;4154;48.810;9.012;2023-02-24T00:51:36;96583.00;;;8.70
8227;BMP180;4154;48.810;9.012;2023-02-24T00:54:02;96582.00;;;8.80
8227;BMP180;4154;48.810;9.012;2023-02-24T00:56:29;96583.00;;;8.90
8227;BMP180;4154;48.810;9.012;2023-02-24T00:58:57;96591.00;;;8.80
8227;BMP180;4154;48.810;9.012;2023-02-24T01:01:31;96596.00;;;8.80
8227;BMP180;4154;48.810;9.012;2023-02-24T01:03:59;96596.00;;;8.70
8227;BMP180;4154;48.810;9.012;2023-02-24T01:06:28;96587.00;;;8.80
8227;BMP180;4154;48.810;9.012;2023-02-24T01:08:56;96594.00;;;8.70
8227;BMP180;4154;48.810;9.012;2023-02-24T01:11:27;96588.00;;;8.70
8227;BMP180;4154;48.810;9.012;2023-02-24T01:14:16;96595.00;;;8.60
8227;BMP180;4154;48.810;9.012;2023-02-24T01:16:43;96593.00;;;8.70
8227;BMP180;4154;48.810;9.012;2023-02-24T01:19:11;96580.00;;;8.70
8227;BMP180;4154;48.810;9.012;2023-02-24T01:21:37;96587.00;;;8.60
8227;BMP180;4154;48.810;9.012;2023-02-24T01:24:03;96582.00;;;8.70
8227;BMP180;4154;48.810;9.012;2023-02-24T01:26:29;96576.00;;;8.70
8227;BMP180;4154;48.810;9.012;2023-02-24T01:28:56;96570.00;;;8.70
8227;BMP180;4154;48.810;9.012;2023-02-24T01:31:22;96569.00;;;8.70
8227;BMP180;4154;48.810;9.012;2023-02-24T01:33:49;96571.00;;;8.70
8227;BMP180;4154;48.810;9.012;2023-02-24T01:36:18;96563.00;;;8.70
8227;BMP180;4154;48.810;9.012;2023-02-24T01:38:45;96574.00;;;8.70
8227;BMP180;4154;48.810;9.012;2023-02-24T01:41:18;96560.00;;;8.60
8227;BMP180;4154;48.810;9.012;2023-02-24T01:44:03;96562.00;;;8.60
8227;BMP180;4154;48.810;9.012;2023-02-24T01:46:39;96552.00;;;8.60
8227;BMP180;4154;48.810;9.012;2023-02-24T01:52:06;96552.00;;;8.70
8227;BMP180;4154;48.810;9.012;2023-02-24T01:54:37;96554.00;;;8.60
8227;BMP180;4154;48.810;9.012;2023-02-24T01:57:14;96547.00;;;8.60
8227;BMP180;4154;48.810;9.012;2023-02-24T01:59:43;96555.00;;;8.50
8227;BMP180;4154;48.810;9.012;2023-02-24T02:02:10;96546.00;;;8.50
8227;BMP180;4154;48.810;9.012;2023-02-24T02:04:55;96547.00;;;8.50
8227;BMP180;4154;48.810;9.012;2023-02-24T02:07:26;96546.00;;;8.50
8227;BMP180;4154;48.810;9.012;2023-02-24T02:09:53;96549.00;;;8.50
8227;BMP180;4154;48.810;9.012;2023-02-24T02:12:21;96542.00;;;8.50
8227;BMP180;4154;48.810;9.012;2023-02-24T02:14:52;96544.00;;;8.50
8227;BMP180;4154;48.810;9.012;2023-02-24T02:18:02;96539.00;;;8.50
8227;BMP180;4154;48.810;9.012;2023-02-24T02:21:13;96534.00;;;8.50
8227;BMP180;4154;48.810;9.012;2023-02-24T02:27:21;96517.00;;;8.50
8227;BMP180;4154;48.810;9.012;2023-02-24T02:30:31;96519.00;;;8.50
8227;BMP180;4154;48.810;9.012;2023-02-24T02:37:03;96524.00;;;8.40
8227;BMP180;4154;48.810;9.012;2023-02-24T02:42:39;96513.00;;;8.30
8227;BMP180;4154;48.810;9.012;2023-02-24T02:45:19;96503.00;;;8.30
8227;BMP180;4154;48.810;9.012;2023-02-24T02:48:09;96499.00;;;8.30
8227;BMP180;4154;48.810;9.012;2023-02-24T02:50:53;96491.00;;;8.30
8227;BMP180;4154;48.810;9.012;2023-02-24T02:53:34;96500.00;;;8.30
8227;BMP180;4154;48.810;9.012;2023-02-24T02:56:18;96496.00;;;8.30
8227;BMP180;4154;48.810;9.012;2023-02-24T02:58:52;96501.00;;;8.30
8227;BMP180;4154;48.810;9.012;2023-02-24T03:01:47;96496.00;;;8.30
8227;BMP180;4154;48.810;9.012;2023-02-24T03:04:18;96501.00;;;8.30
8227;BMP180;4154;48.810;9.012;2023-02-24T03:06:58;96493.00;;;8.30
8227;BMP180;4154;48.810;9.012;2023-02-24T03:09:30;96499.00;;;8.30
8227;BMP180;4154;48.810;9.012;2023-02-24T03:12:05;96492.00;;;8.30
8227;BMP180;4154;48.810;9.012;2023-02-24T03:14:37;96492.00;;;8.30
8227;BMP180;4154;48.810;9.012;2023-02-24T03:17:09;96488.00;;;8.30
8227;BMP180;4154;48.810;9.012;2023-02-24T03:19:38;96473.00;;;8.30
8227;BMP180;4154;48.810;9.012;2023-02-24T03:22:19;96468.00;;;8.30
8227;BMP180;4154;48.810;9.012;2023-02-24T03:24:46;96463.00;;;8.30
8227;BMP180;4154;48.810;9.012;2023-02-24T03:27:20;96462.00;;;8.40
8227;BMP180;4154;48.810;9.012;2023-02-24T03:29:56;96459.00;;;8.40
8227;BMP180;4154;48.810;9.012;2023-02-24T03:32:39;96471.00;;;8.40
8227;BMP180;4154;48.810;9.012;2023-02-24T03:35:31;96462.00;;;8.30
8227;BMP180;4154;48.810;9.012;2023-02-24T03:38:02;96468.00;;;8.30
8227;BMP180;4154;48.810;9.012;2023-02-24T03:40:28;96463.00;;;8.30
8227;BMP180;4154;48.810;9.012;2023-02-24T03:43:10;96468.00;;;8.30
8227;BMP180;4154;48.810;9.012;2023-02-24T03:45:42;96468.00;;;8.30
8227;BMP180;4154;48.810;9.012;2023-02-24T03:48:09;96461.00;;;8.30
8227;BMP180;4154;48.810;9.012;2023-02-24T03:50:40;96460.00;;;8.30
8227;BMP180;4154;48.810;9.012;2023-02-24T03:56:03;96459.00;;;8.30
8227;BMP180;4154;48.810;9.012;2023-02-24T04:02:04;96467.00;;;8.40
8227;BMP180;4154;48.810;9.012;2023-02-24T04:05:08;96472.00;;;8.40
8227;BMP180;4154;48.810;9.012;2023-02-24T04:07:50;96474.00;;;8.30
8227;BMP180;4154;48.810;9.012;2023-02-24T04:10:26;96468.00;;;8.20
8227;BMP180;4154;48.810;9.012;2023-02-24T04:13:06;96467.00;;;8.30
8227;BMP180;4154;48.810;9.012;2023-02-24T04:15:42;96471.00;;;8.20
8227;BMP180;4154;48.810;9.012;2023-02-24T04:18:18;96469.00;;;8.20
8227;BMP180;4154;48.810;9.012;2023-02-24T04:20:46;96464.00;;;8.20
8227;BMP180;4154;48.810;9.012;2023-02-24T04:23:23;96458.00;;;8.20
8227;BMP180;4154;48.810;9.012;2023-02-24T04:25:53;96455.00;;;8.20
8227;BMP180;4154;48.810;9.012;2023-02-24T04:28:22;96460.00;;;8.20
8227;BMP180;4154;48.810;9.012;2023-02-24T04:30:57;96455.00;;;8.10
8227;BMP180;4154;48.810;9.012;2023-02-24T04:33:23;96451.00;;;8.10
8227;BMP180;4154;48.810;9.012;2023-02-24T04:35:50;96448.00;;;8.10
8227;BMP180;4154;48.810;9.012;2023-02-24T04:38:17;96448.00;;;8.10
8227;BMP180;4154;48.810;9.012;2023-02-24T04:40:43;96456.00;;;8.20
8227;BMP180;4154;48.810;9.012;2023-02-24T04:43:08;96439.00;;;8.10
8227;BMP180;4154;48.810;9.012;2023-02-24T04:45:34;96438.00;;;8.10
8227;BMP180;4154;48.810;9.012;2023-02-24T04:48:02;96440.00;;;8.20
8227;BMP180;4154;48.810;9.012;2023-02-24T04:50:31;96426.00;;;8.20
8227;BMP180;4154;48.810;9.012;2023-02-24T04:53:04;96431.00;;;8.20
8227;BMP180;4154;48.810;9.012;2023-02-24T04:55:37;96419.00;;;8.20
8227;BMP180;4154;48.810;9.012;2023-02-24T04:58:12;96423.00;;;8.10
8227;BMP180;4154;48.810;9.012;2023-02-24T05:00:39;96426.00;;;8.20
8227;BMP180;4154;48.810;9.012;2023-02-24T05:03:10;96426.00;;;8.10
8227;BMP180;4154;48.810;9.012;2023-02-24T05:05:36;96415.00;;;8.10
8227;BMP180;4154;48.810;9.012;2023-02-24T05:08:08;96411.00;;;8.10
8227;BMP180;4154;48.810;9.012;2023-02-24T05:10:43;96414.00;;;8.10
8227;BMP180;4154;48.810;9.012;2023-02-24T05:13:14;96404.00;;;8.00
8227;BMP180;4154;48.810;9.012;2023-02-24T05:15:43;96400.00;;;8.00
8227;BMP180;4154;48.810;9.012;2023-02-24T05:18:12;96392.00;;;8.00
8227;BMP180;4154;48.810;9.012;2023-02-24T05:20:45;96401.00;;;8.00
8227;BMP180;4154;48.810;9.012;2023-02-24T05:23:38;96388.00;;;8.00
8227;BMP180;4154;48.810;9.012;2023-02-24T05:26:06;96388.00;;;8.00
8227;BMP180;4154;48.810;9.012;2023-02-24T05:28:39;96389.00;;;7.90
8227;BMP180;4154;48.810;9.012;2023-02-24T05:31:14;96382.00;;;7.90
8227;BMP180;4154;48.810;9.012;2023-02-24T05:33:47;96374.00;;;7.90
8227;BMP180;4154;48.810;9.012;2023-02-24T05:36:17;96385.00;;;7.90
8227;BMP180;4154;48.810;9.012;2023-02-24T05:38:44;96364.00;;;7.90
8227;BMP180;4154;48.810;9.012;2023-02-24T05:41:15;96371.00;;;7.90
8227;BMP180;4154;48.810;9.012;2023-02-24T05:43:54;96368.00;;;8.00
8227;BMP180;4154;48.810;9.012;2023-02-24T05:46:25;96358.00;;;7.90
8227;BMP180;4154;48.810;9.012;2023-02-24T05:49:05;96362.00;;;7.90
8227;BMP180;4154;48.810;9.012;2023-02-24T05:51:36;96360.00;;;7.90
8227;BMP180;4154;48.810;9.012;2023-02-24T05:54:05;96359.00;;;7.80
8227;BMP180;4154;48.810;9.012;2023-02-24T05:56:37;96359.00;;;7.80
8227;BMP180;4154;48.810;9.012;2023-02-24T05:59:06;96358.00;;;7.80
8227;BMP180;4154;48.810;9.012;2023-02-24T06:01:37;96358.00;;;7.80
8227;BMP180;4154;48.810;9.012;2023-02-24T06:04:07;96356.00;;;7.80
8227;BMP180;4154;48.810;9.012;2023-02-24T06:06:35;96359.00;;;7.80
8227;BMP180;4154;48.810;9.012;2023-02-24T06:09:05;96357.00;;;7.90
8227;BMP180;4154;48.810;9.012;2023-02-24T06:11:33;96350.00;;;7.80
8227;BMP180;4154;48.810;9.012;2023-02-24T06:13:59;96358.00;;;7.80
8227;BMP180;4154;48.810;9.012;2023-02-24T06:16:25;96347.00;;;7.80
8227;BMP180;4154;48.810;9.012;2023-02-24T06:18:51;96354.00;;;7.80
8227;BMP180;4154;48.810;9.012;2023-02-24T06:21:17;96349.00;;;7.80
8227;BMP180;4154;48.810;9.012;2023-02-24T06:23:44;96347.00;;;7.90
8227;BMP180;4154;48.810;9.012;2023-02-24T06:26:10;96343.00;;;7.80
8227;BMP180;4154;48.810;9.012;2023-02-24T06:28:45;96347.00;;;7.80
8227;BMP180;4154;48.810;9.012;2023-02-24T06:31:11;96348.00;;;7.70
8227;BMP180;4154;48.810;9.012;2023-02-24T06:33:39;96353.00;;;7.70
8227;BMP180;4154;48.810;9.012;2023-02-24T06:36:07;96343.00;;;7.70
8227;BMP180;4154;48.810;9.012;2023-02-24T06:38:35;96348.00;;;7.70
8227;BMP180;4154;48.810;9.012;2023-02-24T06:41:03;96336.00;;;7.70
8227;BMP180;4154;48.810;9.012;2023-02-24T06:43:42;96344.00;;;7.80
8227;BMP180;4154;48.810;9.012;2023-02-24T06:46:11;96342.00;;;7.80
8227;BMP180;4154;48.810;9.012;2023-02-24T06:48:36;96329.00;;;7.70
8227;BMP180;4154;48.810;9.012;2023-02-24T06:51:07;96341.00;;;7.80
8227;BMP180;4154;48.810;9.012;2023-02-24T06:53:35;96328.00;;;7.80
8227;BMP180;4154;48.810;9.012;2023-02-24T06:56:17;96329.00;;;7.80
8227;BMP180;4154;48.810;9.012;2023-02-24T06:58:48;96321.00;;;7.80
8227;BMP180;4154;48.810;9.012;2023-02-24T07:01:21;96328.00;;;7.80
8227;BMP180;4154;48.810;9.012;2023-02-24T07:03:53;96334.00;;;7.80
8227;BMP180;4154;48.810;9.012;2023-02-24T07:06:35;96332.00;;;7.80
8227;BMP180;4154;48.810;9.012;2023-02-24T07:09:11;96328.00;;;7.80
8227;BMP180;4154;48.810;9.012;2023-02-24T07:11:39;96338.00;;;7.80
8227;BMP180;4154;48.810;9.012;2023-02-24T07:14:11;96338.00;;;7.80
8227;BMP180;4154;48.810;9.012;2023-02-24T07:16:39;96325.00;;;7.80
8227;BMP180;4154;48.810;9.012;2023-02-24T07:19:14;96328.00;;;7.80
8227;BMP180;4154;48.810;9.012;2023-02-24T07:21:42;96328.00;;;7.80
8227;BMP180;4154;48.810;9.012;2023-02-24T07:24:17;96325.00;;;7.80
8227;BMP180;4154;48.810;9.012;2023-02-24T07:26:58;96326.00;;;7.80
8227;BMP180;4154;48.810;9.012;2023-02-24T07:29:27;96321.00;;;7.80
8227;BMP180;4154;48.810;9.012;2023-02-24T07:31:52;96329.00;;;7.80
8227;BMP180;4154;48.810;9.012;2023-02-24T07:34:23;96318.00;;;7.80
8227;BMP180;4154;48.810;9.012;2023-02-24T07:36:53;96324.00;;;7.80
8227;BMP180;4154;48.810;9.012;2023-02-24T07:39:20;96315.00;;;7.80
8227;BMP180;4154;48.810;9.012;2023-02-24T07:41:49;96311.00;;;7.90
8227;BMP180;4154;48.810;9.012;2023-02-24T07:44:18;96314.00;;;7.80
8227;BMP180;4154;48.810;9.012;2023-02-24T07:46:45;96319.00;;;7.80
8227;BMP180;4154;48.810;9.012;2023-02-24T07:49:19;96320.00;;;7.90
8227;BMP180;4154;48.810;9.012;2023-02-24T07:51:46;96308.00;;;7.90
8227;BMP180;4154;48.810;9.012;2023-02-24T07:54:21;96308.00;;;7.90
8227;BMP180;4154;48.810;9.012;2023-02-24T07:56:48;96306.00;;;8.00
8227;BMP180;4154;48.810;9.012;2023-02-24T07:59:27;96309.00;;;8.00
8227;BMP180;4154;48.810;9.012;2023-02-24T08:01:53;96303.00;;;8.00
8227;BMP180;4154;48.810;9.012;2023-02-24T08:04:27;96301.00;;;8.10
8227;BMP180;4154;48.810;9.012;2023-02-24T08:06:54;96296.00;;;8.10
8227;BMP180;4154;48.810;9.012;2023-02-24T08:09:24;96289.00;;;8.10
8227;BMP180;4154;48.810;9.012;2023-02-24T08:12:19;96287.00;;;8.20
8227;BMP180;4154;48.810;9.012;2023-02-24T08:14:48;96287.00;;;8.20
8227;BMP180;4154;48.810;9.012;2023-02-24T08:17:19;96300.00;;;8.20
8227;BMP180;4154;48.810;9.012;2023-02-24T08:19:48;96299.00;;;8.20
8227;BMP180;4154;48.810;9.012;2023-02-24T08:22:16;96295.00;;;8.20
8227;BMP180;4154;48.810;9.012;2023-02-24T08:24:46;96303.00;;;8.30
8227;BMP180;4154;48.810;9.012;2023-02-24T08:27:23;96293.00;;;8.30
8227;BMP180;4154;48.810;9.012;2023-02-24T08:29:53;96278.00;;;8.30
8227;BMP180;4154;48.810;9.012;2023-02-24T08:32:32;96288.00;;;8.30
8227;BMP180;4154;48.810;9.012;2023-02-24T08:35:07;96285.00;;;8.30
8227;BMP180;4154;48.810;9.012;2023-02-24T08:37:42;96285.00;;;8.40
8227;BMP180;4154;48.810;9.012;2023-02-24T08:40:15;96278.00;;;8.40
8227;BMP180;4154;48.810;9.012;2023-02-24T08:43:02;96279.00;;;8.40
8227;BMP180;4154;48.810;9.012;2023-02-24T08:45:43;96262.00;;;8.40
8227;BMP180;4154;48.810;9.012;2023-02-24T08:48:12;96268.00;;;8.50
8227;BMP180;4154;48.810;9.012;2023-02-24T08:50:44;96271.00;;;8.50
8227;BMP180;4154;48.810;9.012;2023-02-24T08:53:11;96273.00;;;8.50
8227;BMP180;4154;48.810;9.012;2023-02-24T08:55:49;96264.00;;;8.50
8227;BMP180;4154;48.810;9.012;2023-02-24T08:58:19;96263.00;;;8.50
8227;BMP180;4154;48.810;9.012;2023-02-24T09:00:56;96258.00;;;8.50
8227;BMP180;4154;48.810;9.012;2023-02-24T09:03:26;96258.00;;;8.60
8227;BMP180;4154;48.810;9.012;2023-02-24T09:06:07;96267.00;;;8.60
8227;BMP180;4154;48.810;9.012;2023-02-24T09:08:39;96268.00;;;8.70
8227;BMP180;4154;48.810;9.012;2023-02-24T09:11:12;96258.00;;;8.70
8227;BMP180;4154;48.810;9.012;2023-02-24T09:13:44;96257.00;;;8.60
8227;BMP180;4154;48.810;9.012;2023-02-24T09:16:18;96244.00;;;8.70
8227;BMP180;4154;48.810;9.012;2023-02-24T09:18:45;96254.00;;;8.80
8227;BMP180;4154;48.810;9.012;2023-02-24T09:21:30;96247.00;;;8.80
8227;BMP180;4154;48.810;9.012;2023-02-24T09:24:17;96247.00;;;8.80
8227;BMP180;4154;48.810;9.012;2023-02-24T09:26:53;96243.00;;;8.90
8227;BMP180;4154;48.810;9.012;2023-02-24T09:29:24;96240.00;;;9.00
8227;BMP180;4154;48.810;9.012;2023-02-24T09:32:01;96242.00;;;9.00
8227;BMP180;4154;48.810;9.012;2023-02-24T09:34:36;96248.00;;;9.10
8227;BMP180;4154;48.810;9.012;2023-02-24T09:37:03;96239.00;;;9.20
8227;BMP180;4154;48.810;9.012;2023-02-24T09:39:47;96238.00;;;9.30
8227;BMP180;4154;48.810;9.012;2023-02-24T09:42:31;96231.00;;;9.20
8227;BMP180;4154;48.810;9.012;2023-02-24T09:45:27;96227.00;;;9.20
8227;BMP180;4154;48.810;9.012;2023-02-24T09:48:14;96218.00;;;9.30
8227;BMP180;4154;48.810;9.012;2023-02-24T09:50:46;96222.00;;;9.30
8227;BMP180;4154;48.810;9.012;2023-02-24T09:53:27;96204.00;;;9.40
8227;BMP180;4154;48.810;9.012;2023-02-24T09:56:25;96212.00;;;9.30
8227;BMP180;4154;48.810;9.012;2023-02-24T09:59:35;96220.00;;;9.20
8227;BMP180;4154;48.810;9.012;2023-02-24T10:03:17;96213.00;;;9.20
8227;BMP180;4154;48.810;9.012;2023-02-24T10:06:23;96206.00;;;9.20
8227;BMP180;4154;48.810;9.012;2023-02-24T10:09:23;96199.00;;;9.40
8227;BMP180;4154;48.810;9.012;2023-02-24T10:11:57;96196.00;;;9.30
8227;BMP180;4154;48.810;9.012;2023-02-24T10:14:40;96202.00;;;9.30
8227;BMP180;4154;48.810;9.012;2023-02-24T10:17:35;96206.00;;;9.30
8227;BMP180;4154;48.810;9.012;2023-02-24T10:20:29;96197.00;;;9.40
8227;BMP180;4154;48.810;9.012;2023-02-24T10:26:21;96197.00;;;9.30
8227;BMP180;4154;48.810;9.012;2023-02-24T10:34:51;96192.00;;;9.50
8227;BMP180;4154;48.810;9.012;2023-02-24T10:37:22;96198.00;;;9.50
8227;BMP180;4154;48.810;9.012;2023-02-24T10:39:49;96185.00;;;9.40
8227;BMP180;4154;48.810;9.012;2023-02-24T10:42:23;96191.00;;;9.30
8227;BMP180;4154;48.810;9.012;2023-02-24T10:44:51;96181.00;;;9.30
8227;BMP180;4154;48.810;9.012;2023-02-24T10:47:29;96183.00;;;9.30
8227;BMP180;4154;48.810;9.012;2023-02-24T10:50:01;96183.00;;;9.20
8227;BMP180;4154;48.810;9.012;2023-02-24T10:52:34;96172.00;;;9.10
8227;BMP180;4154;48.810;9.012;2023-02-24T10:55:36;96173.00;;;9.10
8227;BMP180;4154;48.810;9.012;2023-02-24T11:01:06;96165.00;;;9.00
8227;BMP180;4154;48.810;9.012;2023-02-24T11:03:52;96156.00;;;9.00
8227;BMP180;4154;48.810;9.012;2023-02-24T11:06:37;96158.00;;;8.90
8227;BMP180;4154;48.810;9.012;2023-02-24T11:09:27;96156.00;;;9.00
8227;BMP180;4154;48.810;9.012;2023-02-24T11:12:04;96155.00;;;9.10
8227;BMP180;4154;48.810;9.012;2023-02-24T11:14:58;96151.00;;;9.20
8227;BMP180;4154;48.810;9.012;2023-02-24T11:17:49;96146.00;;;9.20
8227;BMP180;4154;48.810;9.012;2023-02-24T11:23:02;96143.00;;;9.20
8227;BMP180;4154;48.810;9.012;2023-02-24T11:25:40;96132.00;;;9.20
8227;BMP180;4154;48.810;9.012;2023-02-24T11:28:45;96130.00;;;9.20
8227;BMP180;4154;48.810;9.012;2023-02-24T11:34:15;96111.00;;;9.10
8227;BMP180;4154;48.810;9.012;2023-02-24T11:37:06;96112.00;;;9.10
8227;BMP180;4154;48.810;9.012;2023-02-24T11:42:35;96100.00;;;9.00
8227;BMP180;4154;48.810;9.012;2023-02-24T11:45:20;96088.00;;;9.00
8227;BMP180;4154;48.810;9.012;2023-02-24T11:48:04;96067.00;;;9.00
8227;BMP180;4154;48.810;9.012;2023-02-24T11:50:40;96062.00;;;9.00
8227;BMP180;4154;48.810;9.012;2023-02-24T11:53:24;96064.00;;;9.00
8227;BMP180;4154;48.810;9.012;2023-02-24T11:56:06;96066.00;;;9.10
8227;BMP180;4154;48.810;9.012;2023-02-24T11:58:48;96071.00;;;9.10
8227;BMP180;4154;48.810;9.012;2023-02-24T12:01:38;96058.00;;;9.10
8227;BMP180;4154;48.810;9.012;2023-02-24T12:06:50;96046.00;;;9.20
8227;BMP180;4154;48.810;9.012;2023-02-24T12:09:20;96030.00;;;9.20
8227;BMP180;4154;48.810;9.012;2023-02-24T12:12:20;96027.00;;;9.40
8227;BMP180;4154;48.810;9.012;2023-02-24T12:14:59;96019.00;;;9.40
8227;BMP180;4154;48.810;9.012;2023-02-24T12:17:36;96025.00;;;9.60
8227;BMP180;4154;48.810;9.012;2023-02-24T12:20:19;96018.00;;;9.60
8227;BMP180;4154;48.810;9.012;2023-02-24T12:22:54;96006.00;;;9.60
8227;BMP180;4154;48.810;9.012;2023-02-24T12:25:27;95995.00;;;9.70
8227;BMP180;4154;48.810;9.012;2023-02-24T12:28:52;96002.00;;;9.80
8227;BMP180;4154;48.810;9.012;2023-02-24T12:31:35;95992.00;;;9.90
8227;BMP180;4154;48.810;9.012;2023-02-24T12:34:25;95987.00;;;9.90
8227;BMP180;4154;48.810;9.012;2023-02-24T12:37:33;95990.00;;;9.90
8227;BMP180;4154;48.810;9.012;2023-02-24T12:40:14;95984.00;;;10.00
8227;BMP180;4154;48.810;9.012;2023-02-24T12:43:20;95976.00;;;10.00
8227;BMP180;4154;48.810;9.012;2023-02-24T12:45:59;95974.00;;;10.20
8227;BMP180;4154;48.810;9.012;2023-02-24T12:48:50;95982.00;;;10.30
8227;BMP180;4154;48.810;9.012;2023-02-24T12:51:47;95975.00;;;10.50
8227;BMP180;4154;48.810;9.012;2023-02-24T12:54:45;95966.00;;;10.40
8227;BMP180;4154;48.810;9.012;2023-02-24T13:01:01;95950.00;;;10.20
8227;BMP180;4154;48.810;9.012;2023-02-24T13:04:03;95949.00;;;10.10
8227;BMP180;4154;48.810;9.012;2023-02-24T13:07:19;95952.00;;;10.10
8227;BMP180;4154;48.810;9.012;2023-02-24T13:10:23;95946.00;;;10.10
8227;BMP180;4154;48.810;9.012;2023-02-24T13:13:08;95940.00;;;10.00
8227;BMP180;4154;48.810;9.012;2023-02-24T13:15:35;95939.00;;;10.10
8227;BMP180;4154;48.810;9.012;2023-02-24T13:18:01;95927.00;;;10.00
8227;BMP180;4154;48.810;9.012;2023-02-24T13:20:34;95925.00;;;9.90
8227;BMP180;4154;48.810;9.012;2023-02-24T13:23:14;95934.00;;;10.00
8227;BMP180;4154;48.810;9.012;2023-02-24T13:25:50;95922.00;;;9.90
8227;BMP180;4154;48.810;9.012;2023-02-24T13:28:32;95923.00;;;10.00
8227;BMP180;4154;48.810;9.012;2023-02-24T13:31:11;95925.00;;;10.00
8227;BMP180;4154;48.810;9.012;2023-02-24T13:33:41;95919.00;;;10.00
8227;BMP180;4154;48.810;9.012;2023-02-24T13:36:22;95908.00;;;10.10
8227;BMP180;4154;48.810;9.012;2023-02-24T13:39:18;95901.00;;;10.10
8227;BMP180;4154;48.810;9.012;2023-02-24T13:41:45;95891.00;;;10.20
8227;BMP180;4154;48.810;9.012;2023-02-24T13:44:25;95900.00;;;10.30
8227;BMP180;4154;48.810;9.012;2023-02-24T13:58:17;95885.00;;;10.20
8227;BMP180;4154;48.810;9.012;2023-02-24T14:00:54;95883.00;;;10.10
8227;BMP180;4154;48.810;9.012;2023-02-24T14:03:27;95885.00;;;10.10
8227;BMP180;4154;48.810;9.012;2023-02-24T14:05:53;95887.00;;;9.90
8227;BMP180;4154;48.810;9.012;2023-02-24T14:08:46;95884.00;;;9.90
8227;BMP180;4154;48.810;9.012;2023-02-24T14:11:16;95878.00;;;9.80
8227;BMP180;4154;48.810;9.012;2023-02-24T14:13:51;95871.00;;;9.80
8227;BMP180;4154;48.810;9.012;2023-02-24T14:16:26;95867.00;;;9.90
8227;BMP180;4154;48.810;9.012;2023-02-24T14:18:58;95874.00;;;9.90
8227;BMP180;4154;48.810;9.012;2023-02-24T14:21:29;95872.00;;;9.90
8227;BMP180;4154;48.810;9.012;2023-02-24T14:24:02;95860.00;;;9.90
8227;BMP180;4154;48.810;9.012;2023-02-24T14:26:55;95869.00;;;9.80
8227;BMP180;4154;48.810;9.012;2023-02-24T14:29:28;95860.00;;;9.70
8227;BMP180;4154;48.810;9.012;2023-02-24T14:31:56;95855.00;;;9.70
8227;BMP180;4154;48.810;9.012;2023-02-24T14:34:27;95837.00;;;9.70
8227;BMP180;4154;48.810;9.012;2023-02-24T14:36:58;95847.00;;;9.70
8227;BMP180;4154;48.810;9.012;2023-02-24T14:39:28;95842.00;;;9.70
8227;BMP180;4154;48.810;9.012;2023-02-24T14:42:25;95840.00;;;9.70
8227;BMP180;4154;48.810;9.012;2023-02-24T14:44:54;95842.00;;;9.50
8227;BMP180;4154;48.810;9.012;2023-02-24T14:47:24;95838.00;;;9.60
8227;BMP180;4154;48.810;9.012;2023-02-24T14:50:03;95834.00;;;9.50
8227;BMP180;4154;48.810;9.012;2023-02-24T14:52:49;95831.00;;;9.40
8227;BMP180;4154;48.810;9.012;2023-02-24T14:55:19;95824.00;;;9.40
8227;BMP180;4154;48.810;9.012;2023-02-24T15:00:37;95826.00;;;9.30
8227;BMP180;4154;48.810;9.012;2023-02-24T15:03:23;95811.00;;;9.20
8227;BMP180;4154;48.810;9.012;2023-02-24T15:05:53;95815.00;;;9.30
8227;BMP180;4154;48.810;9.012;2023-02-24T15:10:51;95806.00;;;9.10
8227;BMP180;4154;48.810;9.012;2023-02-24T15:13:43;95791.00;;;9.20
8227;BMP180;4154;48.810;9.012;2023-02-24T15:18:53;95794.00;;;9.20
8227;BMP180;4154;48.810;9.012;2023-02-24T15:21:28;95802.00;;;9.20
8227;BMP180;4154;48.810;9.012;2023-02-24T15:24:12;95784.00;;;9.20
8227;BMP180;4154;48.810;9.012;2023-02-24T15:26:40;95789.00;;;9.10
8227;BMP180;4154;48.810;9.012;2023-02-24T15:29:19;95798.00;;;9.10
8227;BMP180;4154;48.810;9.012;2023-02-24T15:31:47;95798.00;;;9.10
8227;BMP180;4154;48.810;9.012;2023-02-24T15:34:37;95776.00;;;9.00
8227;BMP180;4154;48.810;9.012;2023-02-24T15:37:24;95784.00;;;9.00
8227;BMP180;4154;48.810;9.012;2023-02-24T15:40:10;95785.00;;;8.90
8227;BMP180;4154;48.810;9.012;2023-02-24T15:42:59;95776.00;;;8.90
8227;BMP180;4154;48.810;9.012;2023-02-24T15:45:34;95775.00;;;9.00
8227;BMP180;4154;48.810;9.012;2023-02-24T15:48:23;95780.00;;;8.90
8227;BMP180;4154;48.810;9.012;2023-02-24T15:50:52;95773.00;;;8.90
8227;BMP180;4154;48.810;9.012;2023-02-24T15:53:19;95772.00;;;8.80
8227;BMP180;4154;48.810;9.012;2023-02-24T15:55:45;95763.00;;;8.80
8227;BMP180;4154;48.810;9.012;2023-02-24T15:58:21;95773.00;;;8.80
8227;BMP180;4154;48.810;9.012;2023-02-24T16:00:47;95773.00;;;8.70
8227;BMP180;4154;48.810;9.012;2023-02-24T16:03:17;95771.00;;;8.70
8227;BMP180;4154;48.810;9.012;2023-02-24T16:05:43;95767.00;;;8.70
8227;BMP180;4154;48.810;9.012;2023-02-24T16:08:17;95762.00;;;8.80
8227;BMP180;4154;48.810;9.012;2023-02-24T16:10:44;95757.00;;;8.80
8227;BMP180;4154;48.810;9.012;2023-02-24T16:13:19;95760.00;;;8.90
8227;BMP180;4154;48.810;9.012;2023-02-24T16:15:45;95756.00;;;8.70
8227;BMP180;4154;48.810;9.012;2023-02-24T16:18:17;95758.00;;;8.70
8227;BMP180;4154;48.810;9.012;2023-02-24T16:20:44;95765.00;;;8.70
8227;BMP180;4154;48.810;9.012;2023-02-24T16:23:24;95770.00;;;8.60
8227;BMP180;4154;48.810;9.012;2023-02-24T16:25:56;95763.00;;;8.50
8227;BMP180;4154;48.810;9.012;2023-02-24T16:28:23;95754.00;;;8.40
8227;BMP180;4154;48.810;9.012;2023-02-24T16:30:50;95756.00;;;8.50
8227;BMP180;4154;48.810;9.012;2023-02-24T16:33:18;95758.00;;;8.40
8227;BMP180;4154;48.810;9.012;2023-02-24T16:35:45;95756.00;;;8.40
8227;BMP180;4154;48.810;9.012;2023-02-24T16:38:13;95769.00;;;8.30
8227;BMP180;4154;48.810;9.012;2023-02-24T16:40:43;95760.00;;;8.30
8227;BMP180;4154;48.810;9.012;2023-02-24T16:43:10;95756.00;;;8.20